Terminal Aerodrome Forecast
Issued by NWS

Home | Current Version | Previous Version | Graphics & Text | Print | Product List | Glossary On
Versions: 1 2 3 4 5 6 7 8 9 10 11 12 13 14 15 16 17 18
648
FTUS43 KMPX 280815 AAA
TAFAXN
TAF AMD
KAXN 280815Z 2808/2906 36010KT P6SM OVC009
     FM281200 01007KT P6SM BKN015 OVC050
     FM281600 02008KT P6SM SCT030 BKN050
     FM290000 03005KT P6SM SKC=

USA.gov is the U.S. government's official web portal to all federal, state and local government web resources and services.